Time;durP1;ratioP1;P1;durP2;ratioP2;P2;SDS_P1;SDS_P2;PMS_P1;PMS_P2;Temp;Humidity;BMP_temperature;BMP_pressure;BME280_temperature;BME280_humidity;BME280_pressure;Samples;Min_cycle;Max_cycle;Signal;HPM_P1;HPM_P2
2021/04/24 00:00:52;;;;;;;6.63;3.13;;;4.40;99.90;;;;;;4998024;28;20445;-90
2021/04/24 00:03:18;;;;;;;4.63;3.30;;;;;;;;;;4994601;28;20445;-91
2021/04/24 00:05:45;;;;;;;7.17;3.47;;;;;;;;;;4997508;28;20456;-91
2021/04/24 00:08:15;;;;;;;10.33;4.03;;;4.70;99.90;;;;;;4993570;28;20507;-90
2021/04/24 00:10:43;;;;;;;4.80;3.10;;;4.60;99.90;;;;;;4997795;28;20887;-91
2021/04/24 00:13:11;;;;;;;4.40;3.67;;;4.50;99.90;;;;;;4997381;28;20523;-90
2021/04/24 00:15:39;;;;;;;7.00;4.27;;;4.70;99.90;;;;;;4996897;28;20513;-91
2021/04/24 00:18:08;;;;;;;4.70;3.73;;;4.30;99.90;;;;;;4994440;28;21027;-90
2021/04/24 00:20:35;;;;;;;5.47;3.60;;;;;;;;;;4997298;28;20445;-91
2021/04/24 00:23:02;;;;;;;4.37;3.33;;;4.50;99.90;;;;;;4996712;28;20449;-90
2021/04/24 00:25:28;;;;;;;8.67;4.03;;;4.50;99.90;;;;;;4996891;28;20457;-91
2021/04/24 00:27:55;;;;;;;7.30;3.97;;;4.40;99.90;;;;;;4997081;28;20464;-90
2021/04/24 00:30:22;;;;;;;8.67;4.17;;;5.20;99.90;;;;;;4994340;28;20453;-91
2021/04/24 00:32:49;;;;;;;6.57;3.80;;;4.10;99.90;;;;;;4996766;28;20447;-91
2021/04/24 00:35:17;;;;;;;5.93;3.17;;;4.40;99.90;;;;;;4996806;28;20503;-90
2021/04/24 00:37:43;;;;;;;8.40;4.20;;;;;;;;;;4996917;28;20475;-90
2021/04/24 00:40:11;;;;;;;5.57;3.73;;;4.40;99.90;;;;;;4995711;28;20527;-90
2021/04/24 00:42:38;;;;;;;6.53;3.37;;;4.40;99.90;;;;;;4993744;28;20503;-89
2021/04/24 00:45:08;;;;;;;9.93;3.90;;;4.40;99.90;;;;;;4996701;28;20796;-88
2021/04/24 00:47:34;;;;;;;10.43;4.03;;;;;;;;;;4996429;28;20460;-89
2021/04/24 00:50:01;;;;;;;6.13;3.97;;;4.10;99.90;;;;;;4995898;28;20436;-90
2021/04/24 00:52:28;;;;;;;11.13;4.47;;;4.30;99.90;;;;;;4996399;28;20445;-90
2021/04/24 00:54:55;;;;;;;8.50;3.57;;;;;;;;;;4995385;28;21007;-90
2021/04/24 00:57:22;;;;;;;7.83;4.10;;;4.40;99.90;;;;;;4996361;28;20476;-91
2021/04/24 00:59:49;;;;;;;6.30;3.90;;;4.20;99.90;;;;;;4996377;28;20452;-91
2021/04/24 01:02:16;;;;;;;7.00;4.27;;;4.20;99.90;;;;;;4996586;28;20453;-89
2021/04/24 01:04:43;;;;;;;6.00;4.03;;;4.10;99.90;;;;;;4996350;28;20461;-90
2021/04/24 01:07:10;;;;;;;8.53;4.33;;;;;;;;;;4991558;28;20442;-91
2021/04/24 01:09:37;;;;;;;10.00;4.00;;;4.10;99.90;;;;;;4995545;28;20445;-91
2021/04/24 01:12:08;;;;;;;7.33;4.10;;;;;;;;;;4996507;28;20449;-90
2021/04/24 01:14:35;;;;;;;6.83;4.40;;;;;;;;;;5006015;28;20487;-92
2021/04/24 01:17:06;;;;;;;9.40;3.80;;;4.00;99.90;;;;;;5005111;28;20449;-89
2021/04/24 01:19:32;;;;;;;7.57;4.53;;;;;;;;;;5001491;28;20530;-91
2021/04/24 01:22:09;;;;;;;9.90;4.33;;;3.90;99.90;;;;;;5004795;28;20452;-88
2021/04/24 01:24:42;;;;;;;12.10;4.23;;;;;;;;;;5003274;28;20436;-89
2021/04/24 01:27:11;;;;;;;8.90;4.57;;;;;;;;;;5004438;28;20796;-89
2021/04/24 01:29:40;;;;;;;7.83;4.80;;;3.80;99.90;;;;;;5005474;28;20436;-89
2021/04/24 01:32:09;;;;;;;6.40;4.20;;;3.70;99.90;;;;;;5003094;28;20456;-88
2021/04/24 01:34:36;;;;;;;7.23;4.20;;;;;;;;;;5001880;28;20481;-89
2021/04/24 01:37:05;;;;;;;6.40;3.73;;;3.60;99.90;;;;;;4999003;28;20449;-92
2021/04/24 01:39:34;;;;;;;6.43;3.70;;;;;;;;;;5005053;28;20514;-87
2021/04/24 01:42:00;;;;;;;5.83;4.20;;;;;;;;;;5002201;28;20451;-89
2021/04/24 01:44:28;;;;;;;7.43;4.63;;;;;;;;;;5004126;28;20476;-91
2021/04/24 01:46:56;;;;;;;6.70;4.40;;;;;;;;;;5005317;28;20494;-88
2021/04/24 01:49:23;;;;;;;7.90;4.77;;;;;;;;;;5005037;28;20437;-92
2021/04/24 01:51:50;;;;;;;7.53;3.87;;;;;;;;;;4995765;28;20449;-88
2021/04/24 01:54:17;;;;;;;8.80;4.07;;;;;;;;;;4994758;28;20584;-88
2021/04/24 01:56:46;;;;;;;6.90;4.13;;;3.50;99.90;;;;;;4995544;28;20911;-87
2021/04/24 01:59:14;;;;;;;4.63;3.50;;;3.50;99.90;;;;;;4995279;28;20468;-88
2021/04/24 02:01:41;;;;;;;14.07;4.47;;;;;;;;;;4994953;28;20446;-86
2021/04/24 02:04:07;;;;;;;8.67;4.27;;;;;;;;;;4995012;28;20457;-88
2021/04/24 02:06:34;;;;;;;8.93;4.33;;;3.30;99.90;;;;;;4995150;28;20467;-90
2021/04/24 02:09:01;;;;;;;9.70;5.27;;;;;;;;;;4994329;28;20480;-89
2021/04/24 02:11:27;;;;;;;6.40;4.03;;;3.50;99.90;;;;;;4995363;28;20482;-88
2021/04/24 02:13:54;;;;;;;5.47;4.37;;;3.30;99.90;;;;;;4992150;28;20481;-89
2021/04/24 02:16:21;;;;;;;7.27;5.10;;;;;;;;;;4994947;28;20484;-88
2021/04/24 02:18:47;;;;;;;10.50;4.87;;;;;;;;;;4995050;28;20449;-88
2021/04/24 02:21:14;;;;;;;5.73;4.40;;;3.30;99.90;;;;;;4994817;28;20782;-88
2021/04/24 02:23:41;;;;;;;7.70;4.53;;;3.40;99.90;;;;;;4994354;28;20448;-88
2021/04/24 02:26:09;;;;;;;8.43;4.63;;;3.20;99.90;;;;;;4992125;28;20940;-88
2021/04/24 02:28:36;;;;;;;8.07;4.97;;;3.30;99.90;;;;;;4994768;28;20445;-90
2021/04/24 02:31:04;;;;;;;8.63;4.87;;;3.20;99.90;;;;;;4994755;28;20456;-87
2021/04/24 02:33:30;;;;;;;7.47;4.80;;;;;;;;;;4994956;28;20465;-86
2021/04/24 02:35:59;;;;;;;6.53;4.40;;;3.00;99.90;;;;;;4994680;28;20496;-91
2021/04/24 02:38:27;;;;;;;5.03;3.77;;;3.00;99.90;;;;;;4993520;28;20957;-88
2021/04/24 02:40:55;;;;;;;9.20;4.80;;;3.00;99.90;;;;;;4990538;28;20446;-88
2021/04/24 02:43:22;;;;;;;10.43;4.60;;;2.90;99.90;;;;;;4991933;28;20456;-89
2021/04/24 02:45:49;;;;;;;11.13;5.23;;;2.80;99.90;;;;;;4994649;28;20449;-88
2021/04/24 02:48:17;;;;;;;6.40;4.53;;;3.10;99.90;;;;;;4994488;28;20460;-86
2021/04/24 02:50:44;;;;;;;8.80;4.40;;;3.00;99.90;;;;;;4991315;28;20445;-88
2021/04/24 02:53:11;;;;;;;7.83;4.40;;;2.30;99.90;;;;;;4993690;28;20546;-90
2021/04/24 02:55:38;;;;;;;8.53;5.07;;;;;;;;;;4991129;28;20520;-87
2021/04/24 02:58:05;;;;;;;7.53;4.83;;;2.60;99.90;;;;;;4994208;28;20469;-88
2021/04/24 03:00:32;;;;;;;10.00;4.10;;;2.80;99.90;;;;;;4994456;28;20453;-88
2021/04/24 03:03:01;;;;;;;8.20;4.57;;;3.00;99.90;;;;;;4994652;28;20461;-89
2021/04/24 03:05:28;;;;;;;9.50;4.43;;;2.70;99.90;;;;;;4994157;28;20457;-89
2021/04/24 03:07:55;;;;;;;7.93;4.20;;;;;;;;;;4991006;28;20452;-89
2021/04/24 03:10:22;;;;;;;9.50;4.90;;;3.30;99.90;;;;;;4989314;28;20441;-88
2021/04/24 03:12:48;;;;;;;6.77;4.73;;;2.70;99.90;;;;;;4993447;28;20437;-89
2021/04/24 03:15:15;;;;;;;8.73;5.30;;;2.70;99.90;;;;;;4991227;28;20504;-88
2021/04/24 03:17:42;;;;;;;8.50;5.10;;;;;;;;;;4988874;28;20893;-87
2021/04/24 03:20:11;;;;;;;9.70;4.93;;;2.60;99.90;;;;;;4994138;28;20457;-88
2021/04/24 03:22:38;;;;;;;6.20;4.47;;;2.60;99.90;;;;;;4993980;28;20450;-89
2021/04/24 03:25:07;;;;;;;12.90;5.13;;;2.60;99.90;;;;;;4990131;28;20784;-88
2021/04/24 03:27:34;;;;;;;8.10;5.70;;;;;;;;;;4993865;28;20462;-89
2021/04/24 03:30:00;;;;;;;8.83;4.97;;;;;;;;;;4991086;28;20455;-89
2021/04/24 03:32:27;;;;;;;5.33;3.90;;;2.30;99.90;;;;;;4993814;28;20450;-89
2021/04/24 03:34:53;;;;;;;9.23;5.40;;;;;;;;;;4993641;28;21006;-87
2021/04/24 03:37:20;;;;;;;12.10;5.37;;;2.50;99.90;;;;;;4993900;28;20519;-88
2021/04/24 03:39:47;;;;;;;10.10;5.13;;;2.50;99.90;;;;;;4993071;28;20527;-88
2021/04/24 03:42:14;;;;;;;13.23;5.23;;;2.40;99.90;;;;;;4993785;28;20504;-88
2021/04/24 03:44:40;;;;;;;6.50;4.47;;;2.60;99.90;;;;;;4990950;28;20832;-86
2021/04/24 03:47:08;;;;;;;6.87;4.63;;;2.50;99.90;;;;;;4993735;28;20952;-88
2021/04/24 03:49:34;;;;;;;8.07;4.20;;;;;;;;;;4994262;28;20441;-87
2021/04/24 03:52:01;;;;;;;9.43;5.27;;;3.00;99.90;;;;;;4993661;28;20461;-89
2021/04/24 03:54:28;;;;;;;6.50;4.43;;;;;;;;;;4993157;28;20539;-88
2021/04/24 03:56:55;;;;;;;7.43;5.00;;;2.40;99.90;;;;;;4993905;28;20541;-90
2021/04/24 03:59:21;;;;;;;11.03;4.70;;;;;;;;;;4993728;28;20820;-87
2021/04/24 04:01:48;;;;;;;9.63;5.20;;;2.20;99.90;;;;;;4993612;28;20457;-88
2021/04/24 04:04:15;;;;;;;9.13;5.30;;;;;;;;;;4993704;28;20449;-87
2021/04/24 04:06:41;;;;;;;6.87;4.00;;;2.50;99.90;;;;;;4993695;28;20452;-88
2021/04/24 04:09:08;;;;;;;8.87;5.30;;;;;;;;;;4987355;28;20523;-89
2021/04/24 04:11:34;;;;;;;8.27;5.10;;;;;;;;;;4993677;28;20463;-88
2021/04/24 04:14:02;;;;;;;8.77;4.80;;;2.30;99.90;;;;;;4993455;28;20492;-87
2021/04/24 04:16:28;;;;;;;8.37;5.03;;;;;;;;;;4993578;28;20481;-89
2021/04/24 04:18:54;;;;;;;13.17;5.90;;;2.30;99.90;;;;;;4993613;28;20454;-87
2021/04/24 04:21:21;;;;;;;10.77;5.00;;;2.30;99.90;;;;;;4993453;28;20458;-88
2021/04/24 04:23:48;;;;;;;10.80;4.90;;;;;;;;;;4993562;28;20453;-89
2021/04/24 04:26:20;;;;;;;9.13;5.27;;;2.40;99.90;;;;;;4996787;28;20509;-92
2021/04/24 04:28:55;;;;;;;10.07;4.70;;;;;;;;;;5006171;28;20455;-89
2021/04/24 04:31:24;;;;;;;9.03;5.30;;;;;;;;;;5005824;28;20476;-90
2021/04/24 04:33:51;;;;;;;9.80;5.40;;;;;;;;;;5005944;28;20817;-88
2021/04/24 04:36:21;;;;;;;11.33;5.03;;;2.30;99.90;;;;;;5007150;28;20519;-90
2021/04/24 04:38:57;;;;;;;11.30;5.27;;;2.40;99.90;;;;;;5005020;28;20433;-89
2021/04/24 04:41:25;;;;;;;6.33;4.53;;;;;;;;;;5005884;28;20456;-89
2021/04/24 04:43:55;;;;;;;8.00;5.07;;;2.50;99.90;;;;;;5003027;28;20456;-90
2021/04/24 04:46:24;;;;;;;12.80;5.80;;;;;;;;;;5005349;28;20488;-88
2021/04/24 04:48:51;;;;;;;10.33;4.80;;;;;;;;;;5004909;28;21007;-92
2021/04/24 04:51:22;;;;;;;11.30;4.70;;;;;;;;;;5005377;28;21007;-89
2021/04/24 04:53:48;;;;;;;8.77;5.67;;;;;;;;;;5006456;28;20445;-89
2021/04/24 04:56:15;;;;;;;9.17;5.33;;;2.70;99.90;;;;;;5002434;28;20464;-90
2021/04/24 04:58:41;;;;;;;6.50;4.33;;;2.70;99.90;;;;;;4996628;28;20913;-89
2021/04/24 05:01:08;;;;;;;7.60;5.53;;;;;;;;;;4996452;28;20445;-91
2021/04/24 05:03:35;;;;;;;8.00;4.57;;;2.90;99.90;;;;;;4996362;28;20504;-89
2021/04/24 05:06:02;;;;;;;8.63;5.67;;;;;;;;;;4996643;28;20889;-89
2021/04/24 05:08:35;;;;;;;9.43;5.13;;;3.30;99.90;;;;;;4998160;28;20452;-90
2021/04/24 05:11:04;;;;;;;8.40;4.93;;;3.30;99.90;;;;;;5005227;28;20450;-88
2021/04/24 05:13:32;;;;;;;7.73;4.70;;;;;;;;;;5001919;28;20461;-90
2021/04/24 05:16:03;;;;;;;7.87;4.57;;;5.50;99.90;;;;;;5004119;28;20501;-88
2021/04/24 05:18:30;;;;;;;10.63;5.27;;;;;;;;;;5005100;28;20448;-87
2021/04/24 05:20:59;;;;;;;9.30;4.40;;;3.80;99.90;;;;;;5003629;28;20942;-90
2021/04/24 05:23:27;;;;;;;11.83;4.63;;;4.10;99.90;;;;;;5003375;28;20496;-90
2021/04/24 05:26:00;;;;;;;9.03;4.43;;;4.10;99.90;;;;;;5000709;28;20518;-87
2021/04/24 05:28:27;;;;;;;6.63;3.90;;;4.40;99.90;;;;;;5004900;28;20453;-89
2021/04/24 05:30:54;;;;;;;8.03;5.20;;;;;;;;;;5015766;28;20543;-90
2021/04/24 05:33:20;;;;;;;12.23;5.40;;;;;;;;;;5015402;28;20456;-89
2021/04/24 05:35:46;;;;;;;10.53;5.70;;;5.70;99.90;;;;;;5014886;28;20892;-89
2021/04/24 05:38:13;;;;;;;10.20;4.87;;;5.70;99.90;;;;;;5014840;28;20455;-89
2021/04/24 05:40:40;;;;;;;6.70;4.50;;;;;;;;;;5015247;28;20448;-88
2021/04/24 05:43:06;;;;;;;8.17;4.50;;;6.60;99.90;;;;;;5015277;28;20453;-90
2021/04/24 05:45:32;;;;;;;8.80;5.03;;;7.20;99.90;;;;;;5015027;28;20460;-90
2021/04/24 05:47:59;;;;;;;10.10;5.17;;;7.10;99.90;;;;;;5004870;28;20461;-91
2021/04/24 05:50:26;;;;;;;8.03;5.20;;;7.30;99.90;;;;;;4998448;28;20440;-93
2021/04/24 05:52:52;;;;;;;6.70;5.23;;;7.60;99.90;;;;;;5004009;28;20453;-90
2021/04/24 05:55:19;;;;;;;9.07;5.13;;;8.30;99.90;;;;;;5008623;28;20562;-90
2021/04/24 05:57:46;;;;;;;8.27;5.67;;;8.10;99.90;;;;;;4996627;28;20481;-88
2021/04/24 06:00:15;;;;;;;9.83;5.77;;;8.50;99.90;;;;;;5000686;28;20448;-90
2021/04/24 06:02:41;;;;;;;11.83;6.70;;;9.00;99.60;;;;;;5014890;28;20461;-90
2021/04/24 06:05:10;;;;;;;8.90;6.40;;;10.10;99.50;;;;;;5001779;28;20445;-90
2021/04/24 06:07:37;;;;;;;10.03;6.20;;;10.10;95.20;;;;;;4917315;29;20521;-89
2021/04/24 06:10:04;;;;;;;9.97;6.90;;;10.40;93.70;;;;;;4929649;29;20504;-90
2021/04/24 06:12:31;;;;;;;11.50;6.90;;;10.80;92.70;;;;;;4919097;29;21024;-91
2021/04/24 06:14:58;;;;;;;13.97;6.90;;;11.10;92.00;;;;;;4927361;29;21004;-92
2021/04/24 06:17:24;;;;;;;10.27;7.17;;;11.20;91.70;;;;;;4924493;29;20444;-90
2021/04/24 06:19:50;;;;;;;9.97;5.90;;;11.50;91.20;;;;;;4922608;29;20449;-91
2021/04/24 06:22:17;;;;;;;12.17;6.87;;;12.00;90.20;;;;;;4931047;29;20496;-89
2021/04/24 06:24:45;;;;;;;9.03;6.47;;;12.00;91.70;;;;;;4917576;29;20467;-90
2021/04/24 06:27:12;;;;;;;10.53;6.43;;;12.20;85.30;;;;;;4927834;29;20485;-88
2021/04/24 06:29:39;;;;;;;10.43;7.20;;;12.50;84.80;;;;;;4925735;29;20531;-91
2021/04/24 06:32:07;;;;;;;8.47;6.90;;;12.40;85.60;;;;;;4957688;28;20512;-89
2021/04/24 06:34:33;;;;;;;8.60;6.63;;;12.60;83.90;;;;;;5012521;28;20483;-89
2021/04/24 06:37:00;;;;;;;11.03;7.33;;;11.90;84.30;;;;;;5013787;28;20458;-90
2021/04/24 06:39:26;;;;;;;9.50;6.40;;;12.20;84.10;;;;;;5012721;28;20452;-88
2021/04/24 06:41:53;;;;;;;9.53;6.90;;;12.20;83.60;;;;;;5014094;28;20467;-88
2021/04/24 06:44:19;;;;;;;13.43;6.50;;;12.60;82.90;;;;;;5010948;28;20460;-90
2021/04/24 06:46:50;;;;;;;9.13;6.90;;;12.60;83.60;;;;;;5010562;28;20967;-89
2021/04/24 06:49:16;;;;;;;11.40;7.20;;;12.70;83.50;;;;;;5011104;28;20444;-88
2021/04/24 06:51:43;;;;;;;9.03;7.70;;;12.80;89.30;;;;;;5013811;28;20449;-88
2021/04/24 06:54:15;;;;;;;14.40;6.70;;;12.90;82.80;;;;;;5002475;28;20532;-91
2021/04/24 06:56:42;;;;;;;12.23;6.67;;;;;;;;;;4963168;28;20473;-90
2021/04/24 06:59:08;;;;;;;9.60;6.93;;;13.30;81.60;;;;;;5013579;28;20479;-89
2021/04/24 07:01:34;;;;;;;12.20;8.47;;;13.90;80.50;;;;;;5013311;28;20452;-89
2021/04/24 07:04:02;;;;;;;9.60;7.13;;;13.90;80.30;;;;;;5013151;28;20568;-88
2021/04/24 07:06:28;;;;;;;10.80;6.67;;;14.10;92.50;;;;;;5013151;28;20449;-89
2021/04/24 07:08:54;;;;;;;9.60;7.53;;;14.00;80.30;;;;;;5012020;28;20452;-89
2021/04/24 07:11:21;;;;;;;14.23;7.30;;;14.20;79.10;;;;;;5005359;28;21137;-90
2021/04/24 07:13:47;;;;;;;18.67;7.53;;;14.40;78.10;;;;;;5009054;28;20456;-89
2021/04/24 07:16:14;;;;;;;7.90;7.10;;;14.10;79.10;;;;;;5012850;28;20555;-90
2021/04/24 07:18:41;;;;;;;10.30;7.80;;;14.00;79.70;;;;;;5013230;28;20452;-89
2021/04/24 07:21:08;;;;;;;10.80;7.23;;;14.40;79.40;;;;;;5014191;28;20547;-91
2021/04/24 07:23:36;;;;;;;11.80;7.43;;;;;;;;;;5015748;28;20487;-92
2021/04/24 07:26:03;;;;;;;18.50;7.67;;;15.00;74.80;;;;;;5007207;28;20457;-91
2021/04/24 07:28:30;;;;;;;11.27;6.40;;;;;;;;;;4994864;28;20456;-91
2021/04/24 07:30:56;;;;;;;11.00;6.50;;;15.90;68.10;;;;;;5002618;28;20459;-93
2021/04/24 07:33:23;;;;;;;9.80;7.20;;;15.70;69.60;;;;;;5015168;28;20783;-93
2021/04/24 07:35:53;;;;;;;13.27;6.80;;;15.20;71.00;;;;;;5004351;28;20571;-91
2021/04/24 07:38:21;;;;;;;16.17;7.63;;;15.30;85.80;;;;;;5009448;28;20448;-92
2021/04/24 07:40:48;;;;;;;9.37;7.43;;;15.40;71.60;;;;;;5013898;28;20449;-91
2021/04/24 07:43:15;;;;;;;11.23;7.33;;;15.90;69.10;;;;;;5013898;28;20456;-94
2021/04/24 07:45:42;;;;;;;10.93;7.00;;;16.00;69.40;;;;;;5014116;28;20441;-92
2021/04/24 07:48:08;;;;;;;7.83;6.43;;;16.40;66.20;;;;;;5014282;28;20448;-92
2021/04/24 07:50:35;;;;;;;8.07;7.10;;;16.40;68.70;;;;;;5007861;28;20437;-91
2021/04/24 07:53:04;;;;;;;9.17;7.17;;;16.50;81.90;;;;;;5003441;28;20499;-92
2021/04/24 07:55:48;;;;;;;10.63;8.53;;;16.70;65.40;;;;;;5002138;28;20522;-91
2021/04/24 07:58:16;;;;;;;9.47;7.10;;;16.70;65.80;;;;;;4993162;28;21007;-93
2021/04/24 08:00:42;;;;;;;9.07;7.57;;;;;;;;;;5013615;28;20452;-93
2021/04/24 08:03:09;;;;;;;9.13;7.90;;;17.30;63.20;;;;;;5018360;28;20555;-91
2021/04/24 08:05:36;;;;;;;10.80;8.03;;;17.60;62.90;;;;;;5013853;28;20505;-91
2021/04/24 08:08:02;;;;;;;9.27;6.87;;;17.30;62.30;;;;;;5016992;28;20457;-89
2021/04/24 08:10:30;;;;;;;10.77;6.80;;;17.70;60.50;;;;;;5013054;28;20452;-92
2021/04/24 08:12:59;;;;;;;10.00;7.53;;;17.60;62.10;;;;;;5011251;28;20479;-88
2021/04/24 08:15:26;;;;;;;15.77;7.50;;;18.30;72.50;;;;;;5016026;28;20504;-90
2021/04/24 08:17:52;;;;;;;8.80;7.30;;;18.30;59.00;;;;;;5016848;28;20494;-93
2021/04/24 08:20:19;;;;;;;12.27;7.93;;;18.70;60.00;;;;;;5017654;28;20448;-90
2021/04/24 08:22:46;;;;;;;9.63;7.50;;;18.80;57.10;;;;;;5018317;28;20452;-89
2021/04/24 08:25:14;;;;;;;10.53;8.10;;;18.30;57.70;;;;;;5011544;28;20453;-86
2021/04/24 08:27:41;;;;;;;11.63;7.20;;;18.40;57.70;;;;;;4996056;28;20449;-89
2021/04/24 08:30:10;;;;;;;10.77;7.80;;;18.90;56.70;;;;;;4996154;28;20449;-89
2021/04/24 08:32:37;;;;;;;7.10;6.40;;;18.20;56.20;;;;;;4994101;28;20551;-87
2021/04/24 08:35:04;;;;;;;11.17;8.10;;;18.40;58.60;;;;;;5015660;28;20480;-89
2021/04/24 08:37:30;;;;;;;11.70;7.70;;;18.50;56.40;;;;;;5007263;28;20455;-89
2021/04/24 08:39:59;;;;;;;8.57;7.07;;;;;;;;;;5010321;28;20506;-88
2021/04/24 08:42:29;;;;;;;9.50;7.17;;;18.90;58.90;;;;;;4996723;28;21030;-91
2021/04/24 08:44:55;;;;;;;9.00;8.10;;;19.70;56.60;;;;;;4993509;28;20468;-90
2021/04/24 08:47:24;;;;;;;9.93;7.77;;;19.40;54.00;;;;;;4996704;28;20499;-91
2021/04/24 08:49:54;;;;;;;11.73;7.40;;;20.00;54.50;;;;;;4996106;28;20449;-89
2021/04/24 08:52:22;;;;;;;9.27;8.00;;;20.00;56.20;;;;;;5000049;28;20444;-89
2021/04/24 08:54:49;;;;;;;11.03;8.43;;;19.70;53.00;;;;;;4997485;28;20984;-89
2021/04/24 08:57:16;;;;;;;12.40;7.10;;;19.30;54.20;;;;;;4917204;29;20457;-89
2021/04/24 08:59:42;;;;;;;9.90;7.50;;;19.80;52.50;;;;;;4928733;29;20448;-90
2021/04/24 09:02:09;;;;;;;8.90;8.00;;;20.80;54.30;;;;;;4932627;29;20456;-91
2021/04/24 09:04:37;;;;;;;11.93;7.63;;;20.90;49.10;;;;;;4936277;29;20452;-90
2021/04/24 09:07:04;;;;;;;9.37;7.33;;;;;;;;;;4936223;29;20456;-89
2021/04/24 09:09:31;;;;;;;9.90;8.20;;;;;;;;;;4934193;29;20574;-88
2021/04/24 09:12:01;;;;;;;11.50;8.30;;;;;;;;;;4926781;29;20447;-90
2021/04/24 09:14:29;;;;;;;11.90;7.93;;;21.10;49.00;;;;;;4942580;28;20459;-89
2021/04/24 09:16:55;;;;;;;9.27;8.00;;;21.30;48.50;;;;;;5000825;28;20485;-89
2021/04/24 09:19:30;;;;;;;9.83;8.23;;;19.50;48.50;;;;;;5015387;28;20535;-90
2021/04/24 09:22:18;;;;;;;10.80;7.80;;;19.80;48.80;;;;;;5015286;28;20451;-91
2021/04/24 09:24:46;;;;;;;12.90;7.83;;;20.40;50.50;;;;;;5013806;28;20458;-88
2021/04/24 09:27:13;;;;;;;9.77;8.07;;;21.40;49.60;;;;;;5010307;28;20440;-88
2021/04/24 09:29:42;;;;;;;11.77;7.80;;;21.10;51.10;;;;;;5005407;28;20855;-90
2021/04/24 09:32:21;;;;;;;10.77;6.87;;;20.80;54.40;;;;;;5011983;28;20928;-89
2021/04/24 09:34:54;;;;;;;7.33;6.33;;;21.10;47.00;;;;;;5003507;28;20506;-87
2021/04/24 09:37:24;;;;;;;7.60;6.23;;;22.00;48.60;;;;;;5004742;28;20445;-90
2021/04/24 09:39:51;;;;;;;6.73;6.10;;;22.30;64.80;;;;;;4999792;28;20456;-88
2021/04/24 09:42:38;;;;;;;10.10;7.47;;;21.60;55.40;;;;;;4995166;28;20944;-88
2021/04/24 09:45:24;;;;;;;9.43;7.30;;;20.90;58.00;;;;;;4995041;28;20484;-88
2021/04/24 09:47:51;;;;;;;10.13;7.47;;;;;;;;;;4994970;28;20485;-89
2021/04/24 09:50:18;;;;;;;7.70;6.70;;;20.70;46.60;;;;;;4992045;28;20515;-90
2021/04/24 09:52:46;;;;;;;10.07;7.43;;;21.00;68.90;;;;;;4996192;28;20445;-87
2021/04/24 09:55:15;;;;;;;13.03;7.30;;;19.70;44.60;;;;;;4994164;28;20547;-87
2021/04/24 09:57:42;;;;;;;10.97;7.30;;;;;;;;;;5014110;28;20452;-87
2021/04/24 10:00:13;;;;;;;8.27;6.37;;;19.60;46.70;;;;;;5014613;28;20459;-89
2021/04/24 10:02:41;;;;;;;8.97;7.37;;;19.80;46.90;;;;;;5010979;28;20777;-88
2021/04/24 10:05:10;;;;;;;8.63;6.53;;;19.80;46.10;;;;;;5014491;28;20454;-90
2021/04/24 10:07:38;;;;;;;7.73;6.20;;;20.00;58.80;;;;;;5011903;28;20551;-90
2021/04/24 10:10:10;;;;;;;10.57;6.70;;;20.30;46.70;;;;;;5010657;28;20934;-89
2021/04/24 10:12:38;;;;;;;9.27;6.13;;;20.70;45.80;;;;;;5011529;28;20460;-90
2021/04/24 10:15:05;;;;;;;9.43;7.50;;;21.20;45.20;;;;;;5014089;28;20507;-91
2021/04/24 10:17:32;;;;;;;9.30;7.40;;;21.40;46.70;;;;;;5009777;28;20459;-91
2021/04/24 10:20:01;;;;;;;10.53;7.30;;;21.50;72.60;;;;;;5009690;28;20440;-90
2021/04/24 10:22:28;;;;;;;11.87;7.20;;;21.70;44.70;;;;;;5002295;28;20448;-93
2021/04/24 10:24:55;;;;;;;8.73;7.00;;;21.90;68.90;;;;;;4998586;28;20449;-89
2021/04/24 10:27:23;;;;;;;9.60;7.67;;;22.10;43.20;;;;;;5011323;28;20743;-88
2021/04/24 10:29:50;;;;;;;12.37;7.63;;;22.10;44.40;;;;;;5013346;28;20570;-87
2021/04/24 10:32:17;;;;;;;7.97;7.17;;;;;;;;;;5013853;28;20453;-87
2021/04/24 10:34:44;;;;;;;9.60;7.47;;;22.00;44.10;;;;;;5008619;28;20479;-90
2021/04/24 10:37:11;;;;;;;7.67;6.30;;;;;;;;;;5004411;28;20449;-87
2021/04/24 10:39:40;;;;;;;12.17;7.97;;;23.00;41.70;;;;;;5012647;28;20459;-90
2021/04/24 10:42:16;;;;;;;12.20;8.40;;;23.00;41.20;;;;;;5002866;28;20437;-91
2021/04/24 10:44:51;;;;;;;9.80;7.80;;;22.40;41.00;;;;;;5003169;28;20817;-88
2021/04/24 10:47:45;;;;;;;12.90;7.77;;;22.00;51.50;;;;;;5001435;28;20460;-88
2021/04/24 10:50:17;;;;;;;7.53;6.73;;;21.80;41.60;;;;;;4998555;28;20445;-90
2021/04/24 10:52:47;;;;;;;8.50;7.40;;;22.40;43.60;;;;;;5004062;28;20448;-91
2021/04/24 10:55:22;;;;;;;11.50;8.07;;;22.40;44.10;;;;;;5000311;28;20979;-89
2021/04/24 10:57:53;;;;;;;9.70;8.20;;;22.70;42.40;;;;;;5005330;28;20785;-90
2021/04/24 11:00:47;;;;;;;11.13;7.37;;;21.70;43.00;;;;;;5002401;28;20921;-91
2021/04/24 11:03:37;;;;;;;9.47;8.00;;;21.80;43.70;;;;;;5001733;28;20453;-90
2021/04/24 11:06:07;;;;;;;9.47;8.57;;;21.70;41.60;;;;;;4993620;28;20456;-89
2021/04/24 11:08:34;;;;;;;11.13;7.93;;;22.30;42.70;;;;;;4997614;28;20452;-93
2021/04/24 11:11:06;;;;;;;10.70;9.23;;;22.10;42.30;;;;;;4998956;28;20445;-89
2021/04/24 11:13:35;;;;;;;11.53;8.47;;;22.20;41.20;;;;;;4993665;28;20457;-90
2021/04/24 11:16:03;;;;;;;10.77;8.67;;;21.90;53.00;;;;;;4993424;28;21043;-89
2021/04/24 11:18:32;;;;;;;9.37;8.40;;;22.80;63.10;;;;;;4993883;28;20464;-89
2021/04/24 11:21:02;;;;;;;12.13;8.70;;;22.10;52.80;;;;;;4993831;28;20508;-90
2021/04/24 11:23:58;;;;;;;10.60;8.80;;;21.20;41.80;;;;;;4992842;28;20476;-91
2021/04/24 11:26:46;;;;;;;11.80;9.50;;;21.30;42.80;;;;;;4990557;28;20426;-90
2021/04/24 11:29:13;;;;;;;10.10;9.00;;;20.80;54.80;;;;;;4990591;28;20448;-91
2021/04/24 11:32:05;;;;;;;12.50;9.13;;;21.60;63.20;;;;;;4993701;28;20494;-88
2021/04/24 11:34:48;;;;;;;13.53;10.67;;;21.80;63.80;;;;;;4986529;28;20976;-90
2021/04/24 11:37:34;;;;;;;13.13;10.10;;;21.80;53.70;;;;;;4993207;28;20456;-89
2021/04/24 11:40:19;;;;;;;13.60;10.10;;;21.80;65.50;;;;;;4985249;28;20461;-92
2021/04/24 11:43:07;;;;;;;20.37;12.30;;;21.40;63.00;;;;;;4994641;28;20449;-87
2021/04/24 11:45:48;;;;;;;15.53;11.53;;;21.50;63.60;;;;;;4992848;28;20496;-88
2021/04/24 11:48:16;;;;;;;11.17;9.50;;;21.80;62.80;;;;;;4993281;28;20450;-90
2021/04/24 11:50:44;;;;;;;16.60;9.17;;;21.70;46.00;;;;;;4993007;28;20533;-88
2021/04/24 11:53:14;;;;;;;11.77;9.00;;;22.30;58.30;;;;;;4992335;28;20544;-86
2021/04/24 11:55:41;;;;;;;11.30;8.83;;;22.60;55.80;;;;;;4992984;28;20496;-87
2021/04/24 11:58:08;;;;;;;10.93;8.73;;;23.10;57.70;;;;;;4993086;28;20463;-84
2021/04/24 12:00:36;;;;;;;11.83;9.70;;;22.80;64.30;;;;;;4993580;28;20449;-84
2021/04/24 12:03:03;;;;;;;15.03;9.90;;;22.30;44.80;;;;;;4990394;28;20964;-86
2021/04/24 12:05:30;;;;;;;12.83;9.93;;;22.70;46.70;;;;;;4993099;28;20441;-88
2021/04/24 12:07:57;;;;;;;15.10;9.90;;;22.50;44.90;;;;;;4992960;28;20457;-88
2021/04/24 12:10:28;;;;;;;10.90;9.80;;;22.90;47.50;;;;;;4991449;28;20457;-87
2021/04/24 12:13:05;;;;;;;15.80;10.23;;;22.40;45.30;;;;;;4987745;28;20515;-87
2021/04/24 12:15:31;;;;;;;11.37;8.80;;;22.10;64.60;;;;;;4992464;28;20547;-85
2021/04/24 12:18:00;;;;;;;15.07;9.77;;;22.40;47.60;;;;;;4992524;28;20453;-86
2021/04/24 12:20:29;;;;;;;15.87;10.27;;;22.10;43.90;;;;;;4992602;28;20453;-88
2021/04/24 12:22:59;;;;;;;12.10;9.67;;;22.10;44.50;;;;;;4992632;28;20453;-88
2021/04/24 12:25:26;;;;;;;12.53;10.47;;;22.00;44.90;;;;;;4992829;28;20448;-91
2021/04/24 12:27:54;;;;;;;12.63;10.20;;;20.80;63.40;;;;;;4990883;28;20559;-90
2021/04/24 12:30:22;;;;;;;11.47;10.27;;;21.50;63.50;;;;;;4992817;28;20457;-88
2021/04/24 12:32:51;;;;;;;12.70;9.60;;;22.40;44.80;;;;;;4992963;28;20456;-88
2021/04/24 12:35:21;;;;;;;12.10;9.70;;;23.00;60.20;;;;;;4992853;28;20556;-87
2021/04/24 12:37:49;;;;;;;13.27;9.93;;;22.90;60.30;;;;;;4993416;28;20453;-89
2021/04/24 12:40:20;;;;;;;15.20;9.93;;;23.10;41.60;;;;;;4992408;28;20508;-89
2021/04/24 12:42:48;;;;;;;11.33;9.97;;;21.80;57.20;;;;;;4995545;28;20551;-90
2021/04/24 12:45:19;;;;;;;12.53;9.17;;;21.80;41.40;;;;;;5013778;28;20448;-86
2021/04/24 12:48:06;;;;;;;12.40;10.00;;;23.70;60.70;;;;;;5005931;28;20452;-88
2021/04/24 12:50:40;;;;;;;10.13;9.03;;;23.40;43.90;;;;;;5006328;28;20452;-88
2021/04/24 12:53:11;;;;;;;12.97;10.90;;;23.30;43.80;;;;;;5004091;28;20449;-88
2021/04/24 12:55:41;;;;;;;13.07;10.00;;;22.00;41.60;;;;;;5004847;28;20527;-88
2021/04/24 12:58:11;;;;;;;10.40;9.30;;;21.90;41.20;;;;;;5000772;28;20453;-88
2021/04/24 13:00:45;;;;;;;12.10;9.87;;;22.80;44.50;;;;;;5005957;28;20489;-87
2021/04/24 13:03:26;;;;;;;13.83;10.03;;;22.80;62.30;;;;;;4995505;28;20531;-88
2021/04/24 13:05:54;;;;;;;15.80;9.37;;;23.10;43.60;;;;;;4995296;28;20452;-87
2021/04/24 13:08:20;;;;;;;12.93;10.37;;;;;;;;;;4989060;28;20449;-87
2021/04/24 13:11:04;;;;;;;10.93;9.53;;;22.60;51.40;;;;;;4995445;28;20551;-86
2021/04/24 13:13:30;;;;;;;11.70;9.70;;;21.50;45.10;;;;;;4997857;28;20440;-86
2021/04/24 13:15:57;;;;;;;10.60;8.70;;;22.80;53.60;;;;;;5004935;28;20493;-87